createdAt,value
2022-10-21T00:02:44.080Z,101547.53
2022-10-21T00:05:46.948Z,101539.59
2022-10-21T00:08:49.789Z,101530.75
2022-10-21T00:11:52.631Z,101526.31
2022-10-21T00:14:57.406Z,101515.66
2022-10-21T00:18:00.853Z,101497.94
2022-10-21T00:21:06.819Z,101489.09
2022-10-21T00:24:09.624Z,101490.88
2022-10-21T00:27:12.453Z,101500.66
2022-10-21T00:30:16.647Z,101510.44
2022-10-21T00:33:19.453Z,101499.78
2022-10-21T00:36:22.301Z,101484.69
2022-10-21T00:39:25.129Z,101490.88
2022-10-21T00:42:32.605Z,101474.91
2022-10-21T00:45:36.802Z,101490.88
2022-10-21T00:48:43.325Z,101479.38
2022-10-21T00:51:49.054Z,101479.38
2022-10-21T00:54:55.209Z,101489.13
2022-10-21T00:57:58.263Z,101505.97
2022-10-21T01:01:05.966Z,101502.44
2022-10-21T01:04:08.816Z,101498.06
2022-10-21T01:07:12.702Z,101494.47
2022-10-21T01:10:15.678Z,101500.72
2022-10-21T01:13:26.527Z,101498.06
2022-10-21T01:16:41.163Z,101498.06
2022-10-21T01:20:12.670Z,101490.97
2022-10-21T01:24:12.205Z,101477.69
2022-10-21T01:27:22.707Z,101459.03
2022-10-21T01:30:35.362Z,101459.03
2022-10-21T01:33:42.038Z,101467.03
2022-10-21T01:36:51.629Z,101450.19
2022-10-21T01:39:58.266Z,101444.84
2022-10-21T01:43:08.685Z,101446.69
2022-10-21T01:46:17.533Z,101441.34
2022-10-21T01:49:28.198Z,101448.47
2022-10-21T01:52:31.309Z,101444.94
2022-10-21T01:55:35.525Z,101448.53
2022-10-21T01:58:40.334Z,101451.19
2022-10-21T02:01:47.196Z,101455.56
2022-10-21T02:04:52.584Z,101458.25
2022-10-21T02:07:56.013Z,101460.03
2022-10-21T02:11:02.245Z,101447.59
2022-10-21T02:14:09.594Z,101445.81
2022-10-21T02:17:17.451Z,101436.94
2022-10-21T02:20:22.020Z,101411.28
2022-10-21T02:23:32.016Z,101418.31
2022-10-21T02:26:34.916Z,101402.41
2022-10-21T02:29:41.387Z,101411.28
2022-10-21T02:32:53.296Z,101396.22
2022-10-21T02:36:05.792Z,101397.09
2022-10-21T02:39:15.435Z,101392.69
2022-10-21T02:42:24.189Z,101380.25
2022-10-21T02:45:28.067Z,101366.94
2022-10-21T02:48:35.510Z,101361.63
2022-10-21T02:51:38.314Z,101357.25
2022-10-21T02:54:41.132Z,101363.41
2022-10-21T02:57:43.968Z,101365.22
2022-10-21T03:00:46.803Z,101361.63
2022-10-21T03:03:50.979Z,101354.56
2022-10-21T03:06:53.774Z,101358.09
2022-10-21T03:09:56.525Z,101370.53
2022-10-21T03:12:59.355Z,101355.50
2022-10-21T03:16:02.177Z,101351.03
2022-10-21T03:19:06.304Z,101341.31
2022-10-21T03:22:09.062Z,101330.66
2022-10-21T03:25:12.368Z,101334.19
2022-10-21T03:28:15.449Z,101329.81
2022-10-21T03:31:18.290Z,101320.09
2022-10-21T03:34:22.483Z,101321.78
2022-10-21T03:37:25.435Z,101308.53
2022-10-21T03:40:30.521Z,101304.06
2022-10-21T03:43:33.276Z,101305.88
2022-10-21T03:46:36.073Z,101297.88
2022-10-21T03:49:40.236Z,101282.75
2022-10-21T03:52:43.014Z,101293.41
2022-10-21T03:55:46.060Z,101303.22
2022-10-21T03:58:49.010Z,101297.88
2022-10-21T04:01:51.815Z,101302.34
2022-10-21T04:04:56.019Z,101300.59
2022-10-21T04:07:58.918Z,101296.13
2022-10-21T04:11:01.891Z,101294.41
2022-10-21T04:14:04.883Z,101293.53
2022-10-21T04:17:08.133Z,101291.75
2022-10-21T04:20:13.165Z,101295.25
2022-10-21T04:23:15.937Z,101296.13
2022-10-21T04:26:18.742Z,101304.13
2022-10-21T04:29:21.736Z,101295.25
2022-10-21T04:32:24.523Z,101288.16
2022-10-21T04:35:28.675Z,101292.59
2022-10-21T04:38:31.453Z,101278.47
2022-10-21T04:41:34.230Z,101272.25
2022-10-21T04:44:39.538Z,101266.94
2022-10-21T04:47:42.371Z,101253.66
2022-10-21T04:50:46.542Z,101253.66
2022-10-21T04:53:49.317Z,101245.69
2022-10-21T04:56:52.239Z,101249.28
2022-10-21T04:59:55.187Z,101239.44
2022-10-21T05:02:57.956Z,101229.72
2022-10-21T05:06:02.242Z,101217.28
2022-10-21T05:09:05.063Z,101202.19
2022-10-21T05:12:08.070Z,101198.75
2022-10-21T05:15:11.546Z,101192.53
2022-10-21T05:18:14.569Z,101205.84
2022-10-21T05:21:19.109Z,101196.16
2022-10-21T05:24:21.936Z,101197.94
2022-10-21T05:27:24.791Z,101189.16
2022-10-21T05:30:27.639Z,101183.03
2022-10-21T05:33:30.525Z,101183.03
2022-10-21T05:36:34.715Z,101191.00
2022-10-21T05:39:37.609Z,101187.53
2022-10-21T05:42:40.681Z,101181.41
2022-10-21T05:45:43.825Z,101176.94
2022-10-21T05:51:55.896Z,101176.09
2022-10-21T05:54:58.680Z,101169.91
2022-10-21T05:58:01.506Z,101173.44
2022-10-21T06:01:04.892Z,101174.34
2022-10-21T06:04:08.228Z,101170.78
2022-10-21T06:07:12.765Z,101167.25
2022-10-21T06:10:16.634Z,101170.78
2022-10-21T06:13:19.405Z,101174.34
2022-10-21T06:16:22.233Z,101173.47
2022-10-21T06:19:25.052Z,101178.78
2022-10-21T06:22:29.322Z,101178.78
2022-10-21T06:25:32.211Z,101185.94
2022-10-21T06:28:36.637Z,101188.53
2022-10-21T06:31:39.470Z,101190.31
2022-10-21T06:34:42.234Z,101188.53
2022-10-21T06:37:46.540Z,101189.41
2022-10-21T06:40:49.687Z,101191.19
2022-10-21T06:43:52.470Z,101197.38
2022-10-21T06:46:55.323Z,101186.75
2022-10-21T06:50:02.869Z,101183.19
2022-10-21T06:53:07.260Z,101192.06
2022-10-21T06:56:16.494Z,101192.06
2022-10-21T06:59:19.504Z,101184.13
2022-10-21T07:02:24.103Z,101185.00
2022-10-21T07:05:26.905Z,101186.75
2022-10-21T07:08:46.516Z,101183.19
2022-10-21T07:11:49.695Z,101190.31
2022-10-21T07:14:52.533Z,101190.31
2022-10-21T07:18:00.851Z,101193.84
2022-10-21T07:21:05.527Z,101185.88
2022-10-21T07:24:11.481Z,101189.41
2022-10-21T07:27:14.319Z,101182.25
2022-10-21T07:30:17.313Z,101193.78
2022-10-21T07:33:20.105Z,101194.72
2022-10-21T07:36:25.274Z,101189.41
2022-10-21T07:39:29.440Z,101201.81
2022-10-21T07:42:32.359Z,101208.03
2022-10-21T07:45:35.701Z,101208.88
2022-10-21T07:48:38.673Z,101208.03
2022-10-21T07:51:42.238Z,101201.81
2022-10-21T07:54:46.435Z,101202.69
2022-10-21T07:57:49.212Z,101201.81
2022-10-21T08:00:52.111Z,101203.53
2022-10-21T08:03:56.129Z,101196.44
2022-10-21T08:06:59.312Z,101191.13
2022-10-21T08:10:04.811Z,101196.44
2022-10-21T08:13:07.761Z,101195.53
2022-10-21T08:16:10.512Z,101194.66
2022-10-21T08:19:19.845Z,101183.13
2022-10-21T08:22:22.720Z,101184.00
2022-10-21T08:25:29.999Z,101177.81
2022-10-21T08:28:32.859Z,101178.69
2022-10-21T08:31:35.704Z,101187.59
2022-10-21T08:34:38.508Z,101186.75
2022-10-21T08:37:41.336Z,101181.41
2022-10-21T08:40:50.046Z,101169.84
2022-10-21T08:43:58.970Z,101169.84
2022-10-21T08:50:17.843Z,101173.38
2022-10-21T08:53:25.599Z,101161.84
2022-10-21T08:56:32.044Z,101147.63
2022-10-21T08:59:34.832Z,101152.97
2022-10-21T09:02:50.098Z,101143.22
2022-10-21T09:06:10.367Z,101153.00
2022-10-21T09:09:21.934Z,101156.53
2022-10-21T09:12:32.400Z,101146.75
2022-10-21T09:15:47.473Z,101137.00
2022-10-21T09:19:00.926Z,101134.34
2022-10-21T09:22:37.196Z,101123.69
2022-10-21T09:25:47.852Z,101121.03
2022-10-21T09:28:52.331Z,101120.16
2022-10-21T09:32:02.529Z,101118.38
2022-10-21T09:35:13.291Z,101128.06
2022-10-21T09:38:22.333Z,101122.75
2022-10-21T09:41:31.367Z,101119.19
2022-10-21T09:44:35.610Z,101097.88
2022-10-21T09:47:38.431Z,101099.69
2022-10-21T09:50:42.107Z,101104.09
2022-10-21T09:53:53.923Z,101099.59
2022-10-21T09:57:02.832Z,101096.94
2022-10-21T10:00:12.678Z,101095.16
2022-10-21T10:03:34.752Z,101084.59
2022-10-21T10:06:39.199Z,101095.22
2022-10-21T10:09:47.224Z,101098.75
2022-10-21T10:12:56.986Z,101100.47
2022-10-21T10:16:17.547Z,101099.50
2022-10-21T10:19:23.080Z,101087.91
2022-10-21T10:22:26.886Z,101090.56
2022-10-21T10:25:32.993Z,101095.88
2022-10-21T10:28:36.103Z,101088.78
2022-10-21T10:31:40.480Z,101085.25
2022-10-21T10:34:53.380Z,101090.56
2022-10-21T10:37:58.461Z,101090.56
2022-10-21T10:41:07.088Z,101081.75
2022-10-21T10:44:13.660Z,101085.25
2022-10-21T10:47:25.266Z,101077.25
2022-10-21T10:50:49.111Z,101076.34
2022-10-21T10:54:02.587Z,101071.03
2022-10-21T10:57:11.637Z,101070.16
2022-10-21T11:00:18.801Z,101069.25
2022-10-21T11:03:28.177Z,101067.41
2022-10-21T11:06:43.447Z,101048.88
2022-10-21T11:09:47.805Z,101052.41
2022-10-21T11:12:50.818Z,101043.53
2022-10-21T11:16:11.204Z,101037.34
2022-10-21T11:19:25.805Z,101039.09
2022-10-21T11:22:39.500Z,101027.59
2022-10-21T11:25:47.429Z,101026.72
2022-10-21T11:28:57.869Z,101020.47
2022-10-21T11:32:12.626Z,101021.38
2022-10-21T11:35:34.446Z,101010.75
2022-10-21T11:38:54.426Z,101012.50
2022-10-21T11:42:06.476Z,101012.50
2022-10-21T11:45:34.902Z,101011.53
2022-10-21T11:48:53.262Z,101003.56
2022-10-21T11:52:10.428Z,100997.31
2022-10-21T11:55:34.179Z,100997.31
2022-10-21T11:58:49.636Z,100985.81
2022-10-21T12:02:00.567Z,100985.88
2022-10-21T12:05:12.643Z,100982.28
2022-10-21T12:08:21.785Z,100992.91
2022-10-21T12:11:28.956Z,100980.56
2022-10-21T12:14:35.954Z,100994.75
2022-10-21T12:17:39.194Z,100993.88
2022-10-21T12:20:43.375Z,100997.41
2022-10-21T12:23:53.021Z,100997.41
2022-10-21T12:27:04.080Z,100996.44
2022-10-21T12:30:13.993Z,100989.34
2022-10-21T12:33:20.913Z,100997.25
2022-10-21T12:36:45.232Z,100999.00
2022-10-21T12:39:51.735Z,101010.50
2022-10-21T12:43:01.137Z,101006.91
2022-10-21T12:46:07.050Z,101005.97
2022-10-21T12:49:22.541Z,101005.97
2022-10-21T12:52:25.510Z,101005.03
2022-10-21T12:55:30.408Z,100997.06
2022-10-21T12:58:41.294Z,100997.06
2022-10-21T13:01:46.530Z,100988.16
2022-10-21T13:04:51.908Z,100977.56
2022-10-21T13:08:16.465Z,100991.72
2022-10-21T13:11:24.741Z,100994.38
2022-10-21T13:14:39.780Z,100988.19
2022-10-21T13:17:53.989Z,100987.34
2022-10-21T13:21:00.572Z,100988.28
2022-10-21T13:24:25.160Z,100985.59
2022-10-21T13:27:32.467Z,100982.94
2022-10-21T13:30:37.611Z,100982.06
2022-10-21T13:33:40.661Z,100986.47
2022-10-21T13:36:44.286Z,100990.94
2022-10-21T13:39:51.888Z,100975.84
2022-10-21T13:42:59.656Z,100974.06
2022-10-21T13:46:07.023Z,100975.84
2022-10-21T13:49:27.612Z,100967.84
2022-10-21T13:52:31.718Z,100972.31
2022-10-21T13:55:34.774Z,100965.28
2022-10-21T13:58:40.238Z,100968.78
2022-10-21T14:01:47.094Z,100968.78
2022-10-21T14:04:49.924Z,100955.53
2022-10-21T14:07:52.910Z,100963.53
2022-10-21T14:11:00.007Z,100966.13
2022-10-21T14:14:08.295Z,100974.09
2022-10-21T14:17:18.122Z,100974.97
2022-10-21T14:20:26.068Z,100977.63
2022-10-21T14:23:30.443Z,100976.72
2022-10-21T14:26:34.331Z,100980.28
2022-10-21T14:29:38.798Z,100975.84
2022-10-21T14:32:43.963Z,100966.13
2022-10-21T14:36:05.357Z,100964.31
2022-10-21T14:39:20.809Z,100954.63
2022-10-21T14:42:26.305Z,100951.97
2022-10-21T14:45:33.015Z,100946.66
2022-10-21T14:48:38.485Z,100947.50
2022-10-21T14:51:41.453Z,100953.69
2022-10-21T14:54:46.743Z,100952.75
2022-10-21T14:57:53.152Z,100950.09
2022-10-21T15:00:59.168Z,100945.63
2022-10-21T15:04:02.710Z,100944.78
2022-10-21T15:07:05.624Z,100949.22
2022-10-21T15:10:18.847Z,100945.63
2022-10-21T15:13:21.799Z,100944.78
2022-10-21T15:16:30.469Z,100940.38
2022-10-21T15:19:46.179Z,100934.13
2022-10-21T15:22:49.716Z,100934.13
2022-10-21T15:25:55.327Z,100923.50
2022-10-21T15:28:58.423Z,100921.75
2022-10-21T15:32:03.647Z,100922.63
2022-10-21T15:35:13.657Z,100928.81
2022-10-21T15:38:16.552Z,100925.22
2022-10-21T15:41:21.395Z,100930.53
2022-10-21T15:44:27.597Z,100924.34
2022-10-21T15:47:31.928Z,100927.88
2022-10-21T15:50:36.630Z,100932.28
2022-10-21T15:53:42.329Z,100921.66
2022-10-21T15:56:48.901Z,100923.50
2022-10-21T15:59:51.672Z,100912.84
2022-10-21T16:02:55.837Z,100914.63
2022-10-21T16:05:59.114Z,100909.31
2022-10-21T16:09:02.007Z,100912.84
2022-10-21T16:12:07.227Z,100905.78
2022-10-21T16:15:11.005Z,100910.19
2022-10-21T16:18:16.218Z,100914.56
2022-10-21T16:21:20.631Z,100911.81
2022-10-21T16:24:23.407Z,100914.44
2022-10-21T16:27:43.341Z,100915.28
2022-10-21T16:30:49.381Z,100914.28
2022-10-21T16:33:53.801Z,100908.97
2022-10-21T16:36:57.086Z,100910.69
2022-10-21T16:39:59.927Z,100913.28
2022-10-21T16:43:02.742Z,100916.81
2022-10-21T16:46:06.038Z,100916.75
2022-10-21T16:49:14.392Z,100916.75
2022-10-21T16:52:17.666Z,100919.31
2022-10-21T16:55:20.581Z,100921.06
2022-10-21T16:58:23.434Z,100921.84
2022-10-21T17:01:26.691Z,100923.59
2022-10-21T17:04:30.904Z,100922.66
2022-10-21T17:07:34.111Z,100923.53
2022-10-21T17:10:38.118Z,100923.53
2022-10-21T17:13:41.867Z,100928.78
2022-10-21T17:16:45.440Z,100934.97
2022-10-21T17:19:50.086Z,100938.50
2022-10-21T17:22:52.885Z,100933.16
2022-10-21T17:25:55.709Z,100933.97
2022-10-21T17:28:58.861Z,100945.41
2022-10-21T17:32:01.689Z,100939.13
2022-10-21T17:35:06.691Z,100944.31
2022-10-21T17:38:09.603Z,100942.47
2022-10-21T17:41:14.160Z,100941.50
2022-10-21T17:44:17.912Z,100937.06
2022-10-21T17:47:20.853Z,100941.50
2022-10-21T17:50:26.203Z,100941.50
2022-10-21T17:53:29.674Z,100951.31
2022-10-21T17:56:32.483Z,100956.69
2022-10-21T17:59:35.349Z,100947.00
2022-10-21T18:02:38.732Z,100950.56
2022-10-21T18:05:43.213Z,100947.91
2022-10-21T18:08:46.232Z,100943.59
2022-10-21T18:11:49.049Z,100944.53
2022-10-21T18:14:52.344Z,100946.25
2022-10-21T18:17:55.188Z,100940.06
2022-10-21T18:21:02.913Z,100941.88
2022-10-21T18:24:09.916Z,100940.06
2022-10-21T18:27:15.133Z,100933.88
2022-10-21T18:30:18.197Z,100928.56
2022-10-21T18:33:21.005Z,100927.69
2022-10-21T18:36:26.105Z,100925.97
2022-10-21T18:39:28.945Z,100926.81
2022-10-21T18:42:31.741Z,100929.56
2022-10-21T18:45:35.098Z,100935.75
2022-10-21T18:48:37.935Z,100935.75
2022-10-21T18:51:42.521Z,100934.88
2022-10-21T18:54:45.365Z,100935.84
2022-10-21T18:57:48.737Z,100938.50
2022-10-21T19:00:51.568Z,100938.50
2022-10-21T19:03:56.069Z,100945.53
2022-10-21T19:07:00.684Z,100957.97
2022-10-21T19:10:03.654Z,100947.31
2022-10-21T19:13:06.461Z,100953.59
2022-10-21T19:16:09.620Z,100956.25
2022-10-21T19:19:13.342Z,100944.72
2022-10-21T19:22:18.429Z,100959.84
2022-10-21T19:25:21.432Z,100962.50
2022-10-21T19:28:24.269Z,100959.00
2022-10-21T19:31:27.192Z,100966.03
2022-10-21T19:34:30.051Z,100964.31
2022-10-21T19:37:34.699Z,100966.03
2022-10-21T19:40:37.626Z,100954.50
2022-10-21T19:43:40.521Z,100952.72
2022-10-21T19:46:44.610Z,100953.59
2022-10-21T19:49:47.478Z,100953.59
2022-10-21T19:52:51.719Z,100959.78
2022-10-21T19:55:54.917Z,100957.13
2022-10-21T19:58:57.820Z,100961.56
2022-10-21T20:02:00.679Z,100968.63
2022-10-21T20:05:03.641Z,100963.38
2022-10-21T20:08:08.011Z,100968.69
2022-10-21T20:11:13.607Z,100975.75
2022-10-21T20:14:16.745Z,100969.56
2022-10-21T20:17:19.650Z,100980.22
2022-10-21T20:20:22.717Z,100989.06
2022-10-21T20:23:27.841Z,100980.22
2022-10-21T20:26:30.750Z,100987.19
2022-10-21T20:29:33.641Z,100980.13
2022-10-21T20:32:36.598Z,100984.53
2022-10-21T20:35:43.107Z,100977.47
2022-10-21T20:38:47.612Z,100975.69
2022-10-21T20:41:50.598Z,100979.22
2022-10-21T20:44:53.558Z,100974.72
2022-10-21T20:47:56.436Z,100963.25
2022-10-21T20:51:03.161Z,100967.69
2022-10-21T20:54:10.236Z,100964.09
2022-10-21T20:57:13.129Z,100956.09
2022-10-21T21:00:16.165Z,100939.28
2022-10-21T21:03:19.201Z,100944.53
2022-10-21T21:06:21.979Z,100948.97
2022-10-21T21:09:57.509Z,100943.66
2022-10-21T21:12:48.904Z,100940.06
2022-10-21T21:15:51.708Z,100944.53
2022-10-21T21:18:56.327Z,100964.97
2022-10-21T21:21:59.263Z,100962.28
2022-10-21T21:25:04.234Z,100963.25
2022-10-21T21:28:07.150Z,100965.91
2022-10-21T21:31:11.591Z,100965.91
2022-10-21T21:34:14.730Z,100973.03
2022-10-21T21:37:17.592Z,100979.22
2022-10-21T21:40:21.742Z,100972.16
2022-10-21T21:43:24.525Z,100969.47
2022-10-21T21:46:28.225Z,100970.34
2022-10-21T21:49:31.093Z,100966.75
2022-10-21T21:52:33.955Z,100964.97
2022-10-21T21:55:38.348Z,100961.41
2022-10-21T21:58:41.309Z,100958.75
2022-10-21T22:01:44.248Z,100957.91
2022-10-21T22:04:47.216Z,100957.91
2022-10-21T22:07:50.091Z,100963.25
2022-10-21T22:10:54.325Z,100957.91
2022-10-21T22:13:57.655Z,100948.19
2022-10-21T22:17:00.441Z,100957.91
2022-10-21T22:20:03.813Z,100957.13
2022-10-21T22:23:06.803Z,100957.97
2022-10-21T22:26:12.469Z,100950.84
2022-10-21T22:29:15.325Z,100949.97
2022-10-21T22:32:18.482Z,100956.19
2022-10-21T22:35:21.328Z,100944.66
2022-10-21T22:38:24.405Z,100947.31
2022-10-21T22:41:28.736Z,100942.88
2022-10-21T22:44:31.634Z,100939.41
2022-10-21T22:47:34.427Z,100936.75
2022-10-21T22:50:37.328Z,100944.72
2022-10-21T22:53:40.212Z,100949.19
2022-10-21T22:56:44.393Z,100958.03
2022-10-21T22:59:52.037Z,100956.34
2022-10-21T23:02:55.827Z,100972.31
2022-10-21T23:05:58.597Z,100964.31
2022-10-21T23:09:02.695Z,100961.66
2022-10-21T23:12:07.653Z,100972.31
2022-10-21T23:15:11.602Z,100977.63
2022-10-21T23:18:14.722Z,100977.63
2022-10-21T23:21:17.517Z,100993.59
2022-10-21T23:24:20.368Z,100985.63
2022-10-21T23:27:24.543Z,100982.94
2022-10-21T23:30:27.421Z,100978.53
2022-10-21T23:33:30.217Z,100979.41
2022-10-21T23:36:33.394Z,100991.84
2022-10-21T23:39:36.337Z,100990.97
2022-10-21T23:42:42.794Z,100998.97
2022-10-21T23:45:45.919Z,100988.41
2022-10-21T23:48:49.366Z,100986.53
2022-10-21T23:51:52.337Z,100964.44
2022-10-21T23:54:55.112Z,100964.38
2022-10-21T23:58:00.908Z,100953.72
